Time;durP1;ratioP1;P1;durP2;ratioP2;P2;SDS_P1;SDS_P2;PMS_P1;PMS_P2;Temp;Humidity;BMP_temperature;BMP_pressure;BME280_temperature;BME280_humidity;BME280_pressure;Samples;Min_cycle;Max_cycle;Signal;HPM_P1;HPM_P2
2022/05/17 00:00:48;;;;;;;35.47;21.48;;;13.00;99.90;;;;;;5030945;28;20113;-84
2022/05/17 00:03:14;;;;;;;28.70;20.10;;;13.00;99.90;;;;;;5031094;28;20562;-84
2022/05/17 00:05:41;;;;;;;33.30;21.50;;;13.00;99.90;;;;;;5014749;28;20045;-85
2022/05/17 00:08:08;;;;;;;37.25;23.15;;;12.90;99.90;;;;;;5014487;28;20041;-84
2022/05/17 00:10:34;;;;;;;35.22;23.15;;;12.90;99.90;;;;;;5031152;28;20159;-84
2022/05/17 00:12:59;;;;;;;35.92;23.42;;;12.90;99.90;;;;;;5032409;28;20112;-84
2022/05/17 00:15:25;;;;;;;33.38;22.05;;;12.90;99.90;;;;;;5036311;28;20022;-84
2022/05/17 00:17:53;;;;;;;34.10;22.60;;;12.90;99.90;;;;;;5018705;28;20033;-84
2022/05/17 00:20:19;;;;;;;32.30;23.02;;;12.90;99.90;;;;;;5034358;28;20041;-85
2022/05/17 00:22:45;;;;;;;30.90;22.63;;;12.80;99.90;;;;;;5035235;28;20389;-84
2022/05/17 00:25:14;;;;;;;38.03;25.02;;;12.80;99.90;;;;;;5035158;28;20385;-84
2022/05/17 00:27:40;;;;;;;37.25;25.02;;;12.70;99.90;;;;;;5018588;28;20037;-84
2022/05/17 00:30:08;;;;;;;33.92;24.50;;;12.70;99.90;;;;;;5018185;28;20083;-84
2022/05/17 00:32:34;;;;;;;38.88;26.00;;;12.70;99.90;;;;;;5018154;28;20034;-84
2022/05/17 00:35:00;;;;;;;35.72;25.50;;;12.60;99.90;;;;;;5018321;28;20027;-84
2022/05/17 00:37:26;;;;;;;49.90;25.83;;;12.60;99.90;;;;;;5018023;28;20132;-85
2022/05/17 00:39:51;;;;;;;31.50;22.77;;;12.60;99.90;;;;;;5017369;28;20568;-84
2022/05/17 00:42:17;;;;;;;39.50;23.30;;;12.50;99.90;;;;;;5034250;28;20588;-84
2022/05/17 00:44:43;;;;;;;34.72;23.45;;;12.40;99.90;;;;;;5017960;28;20030;-84
2022/05/17 00:47:25;;;;;;;31.02;22.95;;;12.40;99.90;;;;;;5033883;28;20092;-85
2022/05/17 00:49:56;;;;;;;35.10;23.67;;;12.40;99.90;;;;;;5034239;28;20076;-84
2022/05/17 00:52:26;;;;;;;36.72;23.88;;;12.30;99.90;;;;;;5017955;28;20384;-84
2022/05/17 00:54:57;;;;;;;36.00;24.65;;;12.30;99.90;;;;;;5034512;28;20029;-85
2022/05/17 00:57:38;;;;;;;35.00;23.88;;;12.30;99.90;;;;;;5018056;28;20026;-84
2022/05/17 01:00:12;;;;;;;36.40;25.77;;;12.30;99.90;;;;;;5033816;28;20489;-84
2022/05/17 01:02:41;;;;;;;37.53;24.45;;;12.30;99.90;;;;;;5017634;28;20041;-84
2022/05/17 01:05:07;;;;;;;39.90;25.85;;;12.30;99.90;;;;;;5034224;28;20037;-85
2022/05/17 01:07:40;;;;;;;40.20;24.70;;;12.30;99.90;;;;;;5017455;28;20079;-84
2022/05/17 01:10:07;;;;;;;36.58;24.58;;;12.20;99.90;;;;;;5017058;28;20127;-85
2022/05/17 01:12:38;;;;;;;36.38;24.17;;;12.20;99.90;;;;;;5033714;28;20034;-84
2022/05/17 01:15:06;;;;;;;35.33;23.60;;;12.20;99.90;;;;;;5017693;28;20103;-84
2022/05/17 01:17:35;;;;;;;43.65;24.95;;;12.10;99.90;;;;;;5035120;28;20033;-84
2022/05/17 01:20:10;;;;;;;36.47;24.52;;;12.00;99.90;;;;;;5017369;28;20033;-85
2022/05/17 01:22:36;;;;;;;36.30;24.10;;;11.90;99.90;;;;;;5016792;28;20048;-84
2022/05/17 01:25:02;;;;;;;31.90;23.58;;;11.90;99.90;;;;;;5016779;28;20403;-85
2022/05/17 01:27:36;;;;;;;33.83;23.55;;;11.80;99.90;;;;;;5033720;28;20044;-84
2022/05/17 01:30:04;;;;;;;36.25;22.10;;;11.80;99.90;;;;;;5017206;28;20120;-84
2022/05/17 01:32:30;;;;;;;37.75;22.58;;;11.70;99.90;;;;;;5033655;28;20025;-84
2022/05/17 01:34:55;;;;;;;35.65;24.00;;;11.70;99.90;;;;;;5016876;28;20692;-84
2022/05/17 01:37:21;;;;;;;42.60;22.83;;;11.70;99.90;;;;;;5033474;28;20079;-85
2022/05/17 01:39:47;;;;;;;36.22;22.98;;;11.60;99.90;;;;;;5033576;28;20022;-84
2022/05/17 01:42:14;;;;;;;31.75;21.90;;;11.60;99.90;;;;;;5016914;28;20072;-84
2022/05/17 01:44:43;;;;;;;34.78;23.85;;;11.60;99.90;;;;;;5033580;28;20048;-85
2022/05/17 01:47:14;;;;;;;34.80;23.90;;;11.60;99.90;;;;;;5016156;28;20034;-84
2022/05/17 01:49:39;;;;;;;39.20;23.40;;;11.50;99.90;;;;;;5016377;28;20079;-84
2022/05/17 01:52:06;;;;;;;41.10;23.85;;;11.40;99.90;;;;;;5032631;28;20045;-84
2022/05/17 01:54:31;;;;;;;40.38;24.05;;;11.40;99.90;;;;;;5032862;28;20567;-84
2022/05/17 01:56:57;;;;;;;39.47;25.60;;;11.30;99.90;;;;;;5032688;28;20063;-84
2022/05/17 01:59:23;;;;;;;37.53;23.35;;;11.30;99.90;;;;;;5032733;28;20034;-84
2022/05/17 02:01:49;;;;;;;39.00;25.08;;;11.20;99.90;;;;;;5016445;28;20692;-85
2022/05/17 02:04:14;;;;;;;45.20;27.30;;;11.20;99.90;;;;;;5016838;28;20040;-84
2022/05/17 02:06:40;;;;;;;34.65;24.95;;;11.20;99.90;;;;;;5016331;28;20041;-85
2022/05/17 02:09:06;;;;;;;38.88;26.13;;;11.20;99.90;;;;;;5016474;28;20029;-85
2022/05/17 02:11:33;;;;;;;47.58;25.98;;;11.10;99.90;;;;;;5015979;28;20028;-84
2022/05/17 02:13:58;;;;;;;41.35;24.80;;;11.10;99.90;;;;;;5018506;28;20401;-85
2022/05/17 02:16:24;;;;;;;41.05;26.30;;;11.10;99.90;;;;;;5025780;28;20452;-84
2022/05/17 02:18:50;;;;;;;37.35;24.67;;;11.10;99.90;;;;;;5034059;28;20064;-85
2022/05/17 02:21:16;;;;;;;36.78;24.85;;;11.00;99.90;;;;;;5015992;28;20029;-85
2022/05/17 02:23:42;;;;;;;39.17;25.42;;;11.00;99.90;;;;;;5032723;28;20049;-84
2022/05/17 02:26:08;;;;;;;39.47;26.25;;;11.00;99.90;;;;;;5015939;28;20072;-84
2022/05/17 02:28:49;;;;;;;40.17;25.15;;;10.90;99.90;;;;;;5031580;28;20025;-85
2022/05/17 02:31:16;;;;;;;41.92;25.35;;;10.90;99.90;;;;;;5031728;28;20040;-85
2022/05/17 02:33:42;;;;;;;37.60;23.90;;;10.80;99.90;;;;;;5015877;28;20033;-85
2022/05/17 02:36:07;;;;;;;37.97;25.50;;;10.80;99.90;;;;;;5015471;28;20030;-84
2022/05/17 02:38:33;;;;;;;42.80;23.60;;;10.70;99.90;;;;;;5032115;28;20052;-85
2022/05/17 02:40:59;;;;;;;38.75;24.35;;;10.70;99.90;;;;;;5015648;28;20479;-85
2022/05/17 02:43:25;;;;;;;40.00;23.75;;;10.60;99.90;;;;;;5032317;28;20037;-85
2022/05/17 02:45:51;;;;;;;38.97;23.45;;;10.50;99.90;;;;;;5032087;28;20472;-85
2022/05/17 02:48:17;;;;;;;35.95;23.38;;;10.50;99.90;;;;;;5033637;28;20716;-84
2022/05/17 02:54:30;;;;;;;34.90;24.48;;;10.40;99.90;;;;;;5033662;28;20523;-85
2022/05/17 02:56:56;;;;;;;37.45;25.15;;;10.30;99.90;;;;;;5032132;28;20030;-85
2022/05/17 02:59:22;;;;;;;40.30;26.00;;;10.30;99.90;;;;;;5015398;28;20029;-85
2022/05/17 03:01:48;;;;;;;42.92;27.10;;;10.30;99.90;;;;;;5015015;28;20120;-85
2022/05/17 03:04:14;;;;;;;43.80;26.50;;;10.30;99.90;;;;;;5034032;28;20064;-85
2022/05/17 03:07:17;;;;;;;43.75;26.58;;;10.40;99.90;;;;;;5015517;28;20128;-85
2022/05/17 03:09:43;;;;;;;46.65;26.70;;;10.40;99.90;;;;;;5015351;28;20033;-85
2022/05/17 03:12:09;;;;;;;43.25;27.08;;;10.40;99.90;;;;;;5014831;28;20521;-85
2022/05/17 03:14:35;;;;;;;38.75;25.45;;;10.50;99.90;;;;;;5031896;28;20033;-85
2022/05/17 03:17:01;;;;;;;49.00;28.38;;;10.50;99.90;;;;;;5015056;28;20029;-85
2022/05/17 03:19:27;;;;;;;43.72;25.13;;;10.50;99.90;;;;;;5015200;28;20029;-86
2022/05/17 03:21:52;;;;;;;43.72;26.40;;;10.60;99.90;;;;;;5031168;28;20128;-85
2022/05/17 03:24:18;;;;;;;39.38;25.38;;;10.70;99.90;;;;;;5014315;28;20408;-85
2022/05/17 03:26:44;;;;;;;34.22;22.75;;;10.70;99.90;;;;;;5015329;28;20037;-86
2022/05/17 03:29:09;;;;;;;38.80;22.67;;;10.60;99.90;;;;;;5015041;28;20030;-86
2022/05/17 03:31:35;;;;;;;30.40;21.67;;;10.70;99.90;;;;;;5031500;28;20091;-85
2022/05/17 03:34:01;;;;;;;39.80;23.00;;;10.60;99.90;;;;;;5014696;28;20032;-85
2022/05/17 03:36:27;;;;;;;35.67;24.10;;;10.60;99.90;;;;;;5014438;28;20029;-86
2022/05/17 03:38:53;;;;;;;40.15;22.70;;;10.60;99.90;;;;;;5014497;28;20041;-85
2022/05/17 03:41:18;;;;;;;44.17;24.85;;;10.50;99.90;;;;;;5013975;28;20124;-82
2022/05/17 03:43:44;;;;;;;38.20;22.45;;;10.60;99.90;;;;;;5014550;28;20087;-83
2022/05/17 03:46:13;;;;;;;35.28;21.63;;;10.60;99.90;;;;;;5031135;28;20497;-82
2022/05/17 03:48:38;;;;;;;37.78;21.92;;;10.50;99.90;;;;;;5017506;28;20136;-83
2022/05/17 03:51:16;;;;;;;37.42;20.60;;;10.50;99.90;;;;;;5035149;28;20108;-82
2022/05/17 03:53:42;;;;;;;30.58;20.02;;;10.60;99.90;;;;;;5035018;28;20021;-82
2022/05/17 03:56:08;;;;;;;29.67;20.05;;;10.60;99.90;;;;;;5035061;28;20172;-82
2022/05/17 03:58:34;;;;;;;37.70;20.48;;;10.50;99.90;;;;;;5018459;28;20109;-83
2022/05/17 04:01:00;;;;;;;39.10;21.17;;;10.50;99.90;;;;;;5034418;28;20132;-82
2022/05/17 04:03:26;;;;;;;33.60;19.30;;;10.50;99.90;;;;;;5017947;28;20036;-82
2022/05/17 04:05:51;;;;;;;36.95;19.25;;;10.50;99.90;;;;;;5018410;28;20434;-83
2022/05/17 04:08:17;;;;;;;30.85;17.23;;;10.50;99.90;;;;;;5017884;28;20025;-82
2022/05/17 04:10:43;;;;;;;27.65;17.35;;;10.60;99.90;;;;;;5034407;28;20690;-82
2022/05/17 04:13:09;;;;;;;32.35;17.85;;;10.60;99.90;;;;;;5034465;28;20072;-83
2022/05/17 04:15:35;;;;;;;30.70;18.85;;;10.60;99.90;;;;;;5018065;28;20480;-83
2022/05/17 04:18:01;;;;;;;36.72;19.02;;;10.60;99.90;;;;;;5035694;28;20029;-82
2022/05/17 04:20:26;;;;;;;32.35;19.30;;;10.60;99.90;;;;;;5017974;28;20037;-83
2022/05/17 04:22:54;;;;;;;34.00;18.45;;;10.70;99.90;;;;;;5017579;28;20440;-82
2022/05/17 04:25:23;;;;;;;29.33;18.00;;;10.80;99.90;;;;;;5033922;28;20079;-82
2022/05/17 04:27:49;;;;;;;31.60;18.48;;;10.90;99.90;;;;;;5033770;28;20041;-83
2022/05/17 04:30:16;;;;;;;25.50;17.30;;;11.00;99.90;;;;;;5033672;28;20033;-83
2022/05/17 04:32:46;;;;;;;28.23;16.70;;;11.00;99.90;;;;;;5018314;28;20034;-82
2022/05/17 04:35:13;;;;;;;30.30;17.05;;;11.00;99.90;;;;;;5017454;28;20393;-82
2022/05/17 04:37:39;;;;;;;37.50;18.35;;;11.10;99.90;;;;;;5033815;28;20033;-82
2022/05/17 04:40:08;;;;;;;30.05;17.70;;;11.10;99.90;;;;;;5017597;28;20041;-82
2022/05/17 04:42:35;;;;;;;35.85;19.05;;;11.20;99.90;;;;;;5017203;28;20140;-82
2022/05/17 04:45:02;;;;;;;31.17;18.45;;;11.30;99.90;;;;;;5033855;28;20499;-83
2022/05/17 04:47:29;;;;;;;39.10;19.05;;;11.40;99.90;;;;;;5016895;28;20408;-83
2022/05/17 04:49:55;;;;;;;23.35;17.30;;;11.50;99.90;;;;;;5017014;28;20088;-83
2022/05/17 04:52:23;;;;;;;30.00;17.10;;;11.60;99.90;;;;;;5033312;28;20415;-83
2022/05/17 04:54:49;;;;;;;30.27;17.77;;;11.80;99.90;;;;;;5016573;28;20128;-83
2022/05/17 05:01:04;;;;;;;26.90;15.88;;;12.00;99.90;;;;;;5035023;28;20068;-82
2022/05/17 05:03:30;;;;;;;25.63;17.10;;;12.20;99.90;;;;;;5033546;28;20037;-83
2022/05/17 05:05:56;;;;;;;26.77;16.88;;;12.30;99.90;;;;;;5016929;28;20389;-83
2022/05/17 05:08:24;;;;;;;31.75;17.17;;;12.40;99.90;;;;;;5017174;28;20033;-83
2022/05/17 05:10:54;;;;;;;31.10;17.90;;;12.50;99.90;;;;;;5015863;28;20407;-83
2022/05/17 05:13:21;;;;;;;25.92;15.95;;;12.70;99.90;;;;;;5016360;28;20030;-83
2022/05/17 05:15:47;;;;;;;27.98;15.35;;;12.80;99.90;;;;;;5016368;28;20032;-82
2022/05/17 05:18:14;;;;;;;22.83;13.05;;;12.90;99.90;;;;;;5016198;28;20057;-83
2022/05/17 05:20:40;;;;;;;15.85;12.50;;;13.10;99.90;;;;;;5015988;28;20798;-83
2022/05/17 05:23:07;;;;;;;29.63;12.85;;;13.20;99.90;;;;;;5016132;28;20037;-82
2022/05/17 05:25:33;;;;;;;23.75;11.45;;;13.30;99.90;;;;;;5016583;28;20594;-83
2022/05/17 05:27:58;;;;;;;22.75;11.77;;;13.50;99.90;;;;;;5033393;28;20033;-83
2022/05/17 05:30:24;;;;;;;20.60;11.20;;;13.70;99.90;;;;;;5016391;28;20033;-83
2022/05/17 05:32:50;;;;;;;19.75;10.77;;;13.80;99.90;;;;;;5016844;28;20057;-82
2022/05/17 05:35:20;;;;;;;18.70;9.25;;;13.90;99.90;;;;;;5032922;28;20022;-83
2022/05/17 05:37:46;;;;;;;16.75;8.45;;;14.10;99.90;;;;;;5016598;28;20033;-82
2022/05/17 05:40:12;;;;;;;14.50;7.90;;;14.20;99.90;;;;;;5016491;28;20037;-82
2022/05/17 05:42:39;;;;;;;14.15;8.02;;;14.40;99.90;;;;;;5015558;28;20040;-83
2022/05/17 05:45:09;;;;;;;13.65;7.40;;;14.50;99.90;;;;;;5032715;28;20037;-82
2022/05/17 05:47:35;;;;;;;17.17;6.80;;;14.70;99.90;;;;;;5032983;28;20037;-83
2022/05/17 05:50:01;;;;;;;11.15;5.78;;;14.80;99.90;;;;;;5032492;28;20400;-82
2022/05/17 05:52:27;;;;;;;12.85;6.88;;;14.90;99.90;;;;;;5032808;28;20754;-82
2022/05/17 05:54:52;;;;;;;11.90;5.97;;;15.10;99.90;;;;;;5016232;28;20030;-82
2022/05/17 05:57:18;;;;;;;12.02;6.82;;;15.20;99.90;;;;;;5015983;28;20038;-83
2022/05/17 05:59:44;;;;;;;11.88;6.70;;;15.30;99.90;;;;;;5031932;28;20030;-83
2022/05/17 06:02:11;;;;;;;14.43;6.22;;;15.50;99.90;;;;;;5015159;28;20029;-83
2022/05/17 06:04:38;;;;;;;10.30;5.63;;;15.70;99.90;;;;;;5032482;28;20129;-82
2022/05/17 06:07:05;;;;;;;13.20;4.90;;;15.70;99.90;;;;;;5015786;28;20036;-82
2022/05/17 06:09:32;;;;;;;8.75;5.00;;;15.80;99.90;;;;;;5032003;28;20022;-83
2022/05/17 06:11:59;;;;;;;14.93;5.55;;;16.00;99.90;;;;;;5015011;28;20564;-82
2022/05/17 06:14:24;;;;;;;14.57;3.92;;;16.00;99.90;;;;;;5015789;28;20029;-83
2022/05/17 06:16:52;;;;;;;7.97;5.05;;;16.10;99.90;;;;;;5031971;28;20396;-82
2022/05/17 06:19:17;;;;;;;10.38;4.70;;;16.20;99.90;;;;;;5015883;28;20076;-83
2022/05/17 06:21:43;;;;;;;10.63;3.97;;;16.20;99.90;;;;;;5031946;28;20038;-83
2022/05/17 06:24:09;;;;;;;10.90;3.67;;;16.40;99.90;;;;;;5032449;28;20704;-83
2022/05/17 06:26:36;;;;;;;8.60;4.05;;;16.50;99.90;;;;;;5032212;28;20817;-83
2022/05/17 06:33:12;;;;;;;8.32;4.43;;;16.80;99.90;;;;;;5033271;28;20152;-83
2022/05/17 06:35:48;;;;;;;11.68;4.20;;;16.90;99.90;;;;;;5015495;28;20051;-83
2022/05/17 06:38:15;;;;;;;8.77;3.95;;;16.90;99.90;;;;;;5031818;28;20037;-83
2022/05/17 06:40:41;;;;;;;7.22;3.80;;;17.00;99.90;;;;;;5014946;28;20497;-82
2022/05/17 06:43:07;;;;;;;8.75;4.03;;;17.10;99.90;;;;;;5031963;28;20049;-83
2022/05/17 06:45:33;;;;;;;13.38;4.00;;;17.20;99.90;;;;;;5014788;28;20036;-83
2022/05/17 06:48:00;;;;;;;8.15;3.50;;;17.30;99.90;;;;;;5014885;28;20041;-83
2022/05/17 06:50:27;;;;;;;14.02;3.80;;;17.30;99.90;;;;;;5014412;28;20034;-81
2022/05/17 06:52:53;;;;;;;12.65;3.50;;;17.40;99.90;;;;;;5031096;28;20076;-83
2022/05/17 06:55:19;;;;;;;11.32;3.10;;;17.50;99.90;;;;;;5015201;28;20398;-82
2022/05/17 06:57:44;;;;;;;13.02;3.75;;;17.60;99.90;;;;;;5015258;28;20148;-83
2022/05/17 07:00:13;;;;;;;12.35;3.75;;;17.80;99.90;;;;;;5015110;28;20025;-84
2022/05/17 07:02:39;;;;;;;8.35;3.30;;;17.90;99.90;;;;;;5032577;28;20037;-83
2022/05/17 07:05:06;;;;;;;10.63;4.03;;;18.00;99.90;;;;;;5014708;28;20034;-82
2022/05/17 07:07:32;;;;;;;8.18;3.13;;;18.00;99.90;;;;;;5031551;28;20646;-83
2022/05/17 07:15:26;;;;;;;9.07;2.50;;;18.60;99.90;;;;;;5031307;28;20432;-83
2022/05/17 07:17:51;;;;;;;7.15;2.55;;;18.70;99.90;;;;;;5014757;28;20040;-82
2022/05/17 07:20:17;;;;;;;10.35;2.78;;;18.90;99.90;;;;;;5015007;28;20068;-82
2022/05/17 07:22:43;;;;;;;6.53;2.40;;;19.00;99.90;;;;;;5017996;28;20067;-82
2022/05/17 07:25:10;;;;;;;8.40;2.20;;;19.10;99.90;;;;;;5035573;28;20790;-82
2022/05/17 07:27:36;;;;;;;8.38;2.60;;;19.10;99.90;;;;;;5018157;28;20037;-83
2022/05/17 07:30:04;;;;;;;11.52;2.97;;;19.20;99.90;;;;;;5036019;28;20065;-83
2022/05/17 07:32:30;;;;;;;11.40;3.13;;;19.30;99.90;;;;;;5034814;28;20512;-82
2022/05/17 07:34:56;;;;;;;12.32;3.10;;;19.40;99.90;;;;;;5018577;28;20064;-82
2022/05/17 07:37:22;;;;;;;10.07;3.05;;;19.50;99.90;;;;;;5018976;28;20038;-83
2022/05/17 07:39:47;;;;;;;6.40;2.90;;;19.70;99.90;;;;;;5018594;28;20389;-82
2022/05/17 07:42:14;;;;;;;17.15;3.42;;;19.70;99.90;;;;;;5035382;28;20084;-83
2022/05/17 07:44:40;;;;;;;9.30;3.00;;;19.90;99.90;;;;;;5019403;28;20069;-83
2022/05/17 07:47:06;;;;;;;6.72;2.47;;;19.90;99.90;;;;;;5035241;28;20029;-83
2022/05/17 07:49:35;;;;;;;6.68;2.30;;;20.20;99.90;;;;;;5035461;28;20086;-82
2022/05/17 07:52:02;;;;;;;7.88;2.55;;;20.70;99.90;;;;;;5034592;28;20038;-82
2022/05/17 07:54:28;;;;;;;6.80;2.13;;;21.90;99.90;;;;;;5018671;28;20099;-82
2022/05/17 07:56:53;;;;;;;5.38;2.22;;;23.30;99.90;;;;;;5034893;28;20040;-83
2022/05/17 07:59:19;;;;;;;10.27;2.70;;;24.50;99.90;;;;;;5017716;28;20436;-83
2022/05/17 08:01:45;;;;;;;9.07;3.03;;;25.30;99.90;;;;;;5017892;28;20707;-83
2022/05/17 08:04:10;;;;;;;6.28;2.05;;;26.20;99.90;;;;;;5034527;28;20034;-83
2022/05/17 08:06:36;;;;;;;9.68;3.80;;;27.30;99.90;;;;;;5034584;28;20037;-83
2022/05/17 08:09:03;;;;;;;8.63;4.45;;;28.20;99.90;;;;;;5034202;28;20041;-83
2022/05/17 08:11:29;;;;;;;10.95;4.28;;;28.90;99.90;;;;;;5034103;28;20037;-83
2022/05/17 08:13:54;;;;;;;5.68;4.20;;;29.00;98.90;;;;;;5017375;28;20822;-82
2022/05/17 08:16:20;;;;;;;8.98;4.00;;;28.00;99.50;;;;;;5033652;28;20040;-83
2022/05/17 08:18:46;;;;;;;8.70;3.92;;;28.50;99.20;;;;;;5016925;28;20622;-83
2022/05/17 08:21:13;;;;;;;8.30;4.25;;;28.80;97.20;;;;;;5017024;28;20064;-83
2022/05/17 08:23:39;;;;;;;8.43;3.38;;;29.20;94.50;;;;;;5033638;28;20120;-83
2022/05/17 08:28:49;;;;;;;14.65;3.92;;;29.70;93.10;;;;;;5033641;28;20416;-83
2022/05/17 08:31:15;;;;;;;9.05;3.33;;;29.50;90.90;;;;;;5016645;28;20041;-83
2022/05/17 08:33:40;;;;;;;10.27;3.83;;;29.70;90.30;;;;;;5033745;28;20120;-83
2022/05/17 08:36:11;;;;;;;10.52;3.05;;;29.40;89.30;;;;;;5033676;28;20362;-83
2022/05/17 08:38:45;;;;;;;11.43;3.35;;;28.50;87.10;;;;;;5033711;28;20774;-82
2022/05/17 08:41:38;;;;;;;10.18;3.00;;;28.10;87.50;;;;;;5016495;28;20135;-83
2022/05/17 08:44:42;;;;;;;8.00;2.60;;;27.90;88.20;;;;;;5017334;28;20030;-83
2022/05/17 08:47:17;;;;;;;8.70;3.10;;;28.40;85.90;;;;;;5032094;28;20512;-82
2022/05/17 08:50:05;;;;;;;9.73;3.03;;;28.30;87.50;;;;;;5017302;28;20048;-83
2022/05/17 08:52:33;;;;;;;15.80;3.80;;;28.10;86.20;;;;;;5033794;28;20036;-83
2022/05/17 08:55:01;;;;;;;10.32;3.25;;;27.70;85.60;;;;;;5017197;28;20037;-83
2022/05/17 08:57:40;;;;;;;5.68;2.72;;;27.10;87.10;;;;;;5017155;28;20083;-83
2022/05/17 09:00:20;;;;;;;6.80;3.30;;;26.00;89.30;;;;;;5017270;28;20393;-83
2022/05/17 09:03:03;;;;;;;7.85;2.90;;;26.00;89.70;;;;;;5032811;28;20041;-83
2022/05/17 09:06:03;;;;;;;7.10;2.75;;;26.30;90.00;;;;;;5016959;28;20033;-83
2022/05/17 09:08:57;;;;;;;6.53;2.97;;;27.00;90.50;;;;;;5016987;28;20037;-83
2022/05/17 09:11:42;;;;;;;8.23;2.97;;;27.90;87.30;;;;;;5032937;28;20484;-83
2022/05/17 09:14:15;;;;;;;6.30;3.13;;;28.20;86.10;;;;;;5016755;28;20025;-83
2022/05/17 09:17:05;;;;;;;5.85;2.85;;;28.20;83.20;;;;;;5016757;28;20124;-83
2022/05/17 09:22:38;;;;;;;3.95;2.67;;;28.00;84.40;;;;;;5066395;28;19909;-83
2022/05/17 09:25:20;;;;;;;11.52;3.22;;;27.90;83.80;;;;;;5016736;28;20034;-83
2022/05/17 09:27:52;;;;;;;9.38;3.17;;;27.70;83.40;;;;;;5016827;28;20029;-83
2022/05/17 09:30:27;;;;;;;9.63;3.20;;;27.70;84.00;;;;;;5016550;28;20029;-83
2022/05/17 09:33:04;;;;;;;6.45;3.47;;;28.00;82.10;;;;;;5033297;28;20481;-82
2022/05/17 09:35:32;;;;;;;7.15;3.53;;;28.90;80.60;;;;;;5016651;28;20513;-83
2022/05/17 09:38:23;;;;;;;10.02;3.03;;;29.30;79.30;;;;;;5015482;28;20030;-83
2022/05/17 09:40:51;;;;;;;9.80;3.35;;;29.30;79.20;;;;;;5015696;28;20038;-81
2022/05/17 09:43:25;;;;;;;5.45;2.80;;;28.80;79.40;;;;;;5016064;28;20178;-83
2022/05/17 09:45:58;;;;;;;5.20;2.53;;;28.60;79.90;;;;;;5016063;28;20128;-83
2022/05/17 09:54:38;;;;;;;6.13;2.75;;;27.90;81.40;;;;;;5033486;28;20029;-83
2022/05/17 09:57:29;;;;;;;7.13;2.85;;;28.50;81.80;;;;;;5015726;28;20031;-83
2022/05/17 10:00:04;;;;;;;6.97;2.70;;;29.10;80.40;;;;;;5031869;28;20120;-83
2022/05/17 10:03:02;;;;;;;5.78;2.65;;;28.70;78.70;;;;;;5032858;28;20489;-83
2022/05/17 10:05:40;;;;;;;9.45;2.50;;;28.00;79.00;;;;;;5015399;28;20032;-83
2022/05/17 10:08:37;;;;;;;3.95;2.38;;;27.50;80.10;;;;;;5031615;28;20034;-83
2022/05/17 10:11:22;;;;;;;8.88;2.17;;;26.50;79.00;;;;;;5014832;28;20589;-84
2022/05/17 10:14:05;;;;;;;6.50;2.20;;;25.70;83.10;;;;;;5015621;28;20036;-82
2022/05/17 10:17:00;;;;;;;5.90;2.55;;;25.60;84.20;;;;;;5015363;28;20033;-83
2022/05/17 10:19:47;;;;;;;7.53;2.35;;;25.80;84.20;;;;;;5033183;28;20116;-84
2022/05/17 10:22:19;;;;;;;7.72;2.70;;;26.50;83.40;;;;;;5015479;28;20612;-83
2022/05/17 10:25:01;;;;;;;4.03;2.28;;;26.60;84.30;;;;;;5015639;28;20124;-83
2022/05/17 10:27:32;;;;;;;5.35;2.70;;;27.30;82.60;;;;;;5031947;28;20117;-83
2022/05/17 10:30:20;;;;;;;4.78;2.80;;;27.40;83.10;;;;;;5015242;28;20531;-83
2022/05/17 10:32:57;;;;;;;15.77;3.15;;;26.90;83.10;;;;;;5014979;28;20029;-83
2022/05/17 10:35:29;;;;;;;11.00;3.45;;;26.80;83.80;;;;;;5014968;28;20761;-83
2022/05/17 10:38:06;;;;;;;6.32;2.15;;;27.90;83.50;;;;;;5015441;28;20127;-83
2022/05/17 10:40:43;;;;;;;10.40;2.58;;;29.00;81.60;;;;;;5031654;28;20061;-83
2022/05/17 10:43:15;;;;;;;6.82;2.35;;;29.90;79.30;;;;;;5014499;28;20048;-83
2022/05/17 10:45:44;;;;;;;4.03;2.40;;;30.40;76.70;;;;;;5014831;28;20037;-83
2022/05/17 10:48:35;;;;;;;4.20;2.10;;;29.90;74.20;;;;;;5014801;28;20033;-83
2022/05/17 10:51:31;;;;;;;11.63;2.90;;;30.40;75.10;;;;;;5032394;28;20029;-83
2022/05/17 10:54:34;;;;;;;6.10;2.50;;;30.10;74.20;;;;;;5015283;28;20071;-83
2022/05/17 10:57:24;;;;;;;7.20;2.38;;;29.10;75.20;;;;;;5030724;28;20030;-84
2022/05/17 11:00:19;;;;;;;3.60;2.22;;;28.60;75.10;;;;;;5015120;28;20032;-83
2022/05/17 11:02:57;;;;;;;4.63;2.08;;;27.90;74.20;;;;;;5031499;28;20033;-83
2022/05/17 11:05:50;;;;;;;4.80;2.20;;;26.80;79.40;;;;;;5031703;28;20038;-83
2022/05/17 11:08:32;;;;;;;6.63;2.58;;;26.20;79.00;;;;;;5031710;28;20040;-83
2022/05/17 11:11:14;;;;;;;5.70;2.25;;;26.00;81.70;;;;;;5031122;28;20056;-83
2022/05/17 11:13:54;;;;;;;7.50;2.85;;;25.70;82.80;;;;;;5031801;28;20029;-83
2022/05/17 11:16:33;;;;;;;9.05;3.28;;;25.50;86.40;;;;;;5014461;28;20042;-83
2022/05/17 11:19:29;;;;;;;6.10;3.08;;;25.30;89.70;;;;;;5014677;28;20055;-82
2022/05/17 11:22:13;;;;;;;4.75;3.00;;;25.30;88.50;;;;;;5014259;28;20025;-83
2022/05/17 11:25:10;;;;;;;4.78;2.65;;;24.60;86.60;;;;;;5014551;28;20489;-83
2022/05/17 11:27:57;;;;;;;6.47;3.35;;;24.20;90.60;;;;;;5032201;28;20025;-83
2022/05/17 11:30:47;;;;;;;6.47;2.75;;;24.40;91.10;;;;;;5030569;28;20037;-83
2022/05/17 11:33:28;;;;;;;9.30;2.65;;;25.20;90.80;;;;;;5013425;28;20037;-83
2022/05/17 11:35:58;;;;;;;8.13;2.50;;;26.10;90.00;;;;;;5030862;28;20120;-83
2022/05/17 11:38:36;;;;;;;6.03;2.92;;;27.20;86.30;;;;;;5031485;28;20499;-83
2022/05/17 11:41:06;;;;;;;5.18;2.50;;;28.10;83.70;;;;;;5014695;28;20037;-83
2022/05/17 11:43:44;;;;;;;9.55;2.92;;;28.10;83.30;;;;;;5015201;28;20065;-83
2022/05/17 11:46:24;;;;;;;6.60;2.70;;;27.50;85.30;;;;;;5031117;28;20472;-83
2022/05/17 11:48:55;;;;;;;;;;;26.70;86.20;;;;;;5031444;28;20037;-82
2022/05/17 11:51:28;;;;;;;6.57;2.83;;;26.40;87.30;;;;;;5047232;28;19913;-83
2022/05/17 11:53:54;;;;;;;7.85;2.63;;;26.70;88.10;;;;;;5014983;28;20075;-83
2022/05/17 11:56:35;;;;;;;7.80;3.20;;;26.90;87.40;;;;;;5030857;28;20034;-83
2022/05/17 11:59:13;;;;;;;7.28;2.78;;;26.60;86.00;;;;;;5031092;28;20033;-83
2022/05/17 12:01:39;;;;;;;6.80;2.97;;;26.20;88.00;;;;;;5014387;28;20080;-83
2022/05/17 12:04:26;;;;;;;5.03;2.75;;;25.40;88.30;;;;;;5015010;28;20065;-83
2022/05/17 12:06:52;;;;;;;8.02;3.10;;;25.50;89.60;;;;;;5014416;28;20615;-83
2022/05/17 12:09:20;;;;;;;7.20;2.90;;;25.30;90.10;;;;;;5016810;28;20028;-83
2022/05/17 12:12:24;;;;;;;7.40;3.03;;;25.40;90.20;;;;;;5017957;28;20076;-83
2022/05/17 12:15:06;;;;;;;6.22;2.92;;;25.60;88.70;;;;;;4977712;28;20022;-82
2022/05/17 12:18:16;;;;;;;6.28;3.38;;;25.20;88.10;;;;;;4993787;28;20052;-83
2022/05/17 12:21:22;;;;;;;7.60;2.58;;;25.20;89.40;;;;;;4993871;28;20136;-82
2022/05/17 12:24:13;;;;;;;5.95;3.13;;;25.30;89.10;;;;;;5033574;28;20025;-83
2022/05/17 12:26:45;;;;;;;6.70;3.10;;;25.60;89.80;;;;;;5034800;28;20041;-82
2022/05/17 12:32:06;;;;;;;5.75;3.08;;;25.20;89.00;;;;;;5035484;28;20547;-83
2022/05/17 12:34:33;;;;;;;9.05;2.58;;;25.10;89.50;;;;;;5033386;28;20044;-83
2022/05/17 12:37:15;;;;;;;6.30;2.38;;;25.30;88.30;;;;;;5017739;28;20117;-83
2022/05/17 12:45:22;;;;;;;5.82;2.10;;;25.40;89.80;;;;;;5033468;28;20049;-83
2022/05/17 12:48:01;;;;;;;4.80;2.22;;;25.00;90.20;;;;;;5033708;28;20868;-83
2022/05/17 12:50:39;;;;;;;6.07;2.65;;;25.20;88.50;;;;;;5017374;28;20090;-83
2022/05/17 12:53:12;;;;;;;5.57;2.58;;;25.50;88.70;;;;;;5017150;28;20026;-83
2022/05/17 12:55:37;;;;;;;8.43;2.78;;;25.60;90.30;;;;;;5016711;28;20040;-83
2022/05/17 12:58:14;;;;;;;5.95;2.40;;;25.80;89.70;;;;;;5016633;28;20393;-83
2022/05/17 13:00:41;;;;;;;4.80;2.35;;;25.80;88.40;;;;;;5033165;28;20656;-83
2022/05/17 13:03:20;;;;;;;7.97;2.75;;;25.90;90.30;;;;;;5016185;28;20044;-83
2022/05/17 13:05:51;;;;;;;7.95;2.50;;;26.20;87.00;;;;;;5016497;28;20477;-83
2022/05/17 13:08:23;;;;;;;3.38;2.50;;;26.20;89.60;;;;;;5016009;28;20072;-83
2022/05/17 13:11:24;;;;;;;3.35;2.10;;;25.70;87.50;;;;;;5015947;28;20167;-83
2022/05/17 13:14:27;;;;;;;5.63;2.97;;;25.50;91.00;;;;;;5016750;28;20029;-82
2022/05/17 13:17:02;;;;;;;6.22;2.78;;;25.30;90.20;;;;;;4995181;28;20061;-83
2022/05/17 13:19:28;;;;;;;6.32;2.40;;;25.00;91.00;;;;;;5016316;28;20084;-83
2022/05/17 13:21:55;;;;;;;5.80;2.70;;;25.00;92.00;;;;;;5032978;28;20472;-83
2022/05/17 13:24:39;;;;;;;4.65;2.75;;;24.90;90.60;;;;;;5016196;28;20095;-83
2022/05/17 13:27:36;;;;;;;6.18;2.70;;;24.40;92.20;;;;;;5016559;28;20038;-82
2022/05/17 13:30:26;;;;;;;6.03;2.90;;;24.10;92.80;;;;;;5016664;28;20532;-82
2022/05/17 13:32:54;;;;;;;4.00;2.60;;;23.90;92.80;;;;;;5016052;28;20045;-83
2022/05/17 13:35:43;;;;;;;9.07;2.85;;;23.90;92.40;;;;;;5016341;28;20052;-83
2022/05/17 13:38:17;;;;;;;5.32;2.90;;;23.80;92.40;;;;;;5033253;28;20393;-83